createdAt,value
2022-10-13T00:01:18.209Z,3.33
2022-10-13T00:05:49.375Z,2.60
2022-10-13T00:10:14.664Z,2.13
2022-10-13T00:14:39.836Z,2.37
2022-10-13T00:19:05.112Z,2.60
2022-10-13T00:23:30.326Z,3.20
2022-10-13T00:27:55.564Z,2.70
2022-10-13T00:32:21.150Z,2.60
2022-10-13T00:36:46.642Z,2.80
2022-10-13T00:41:12.719Z,2.47
2022-10-13T00:45:38.100Z,2.63
2022-10-13T00:50:05.048Z,2.67
2022-10-13T00:54:30.360Z,2.70
2022-10-13T00:58:56.242Z,2.90
2022-10-13T01:03:22.279Z,2.60
2022-10-13T01:07:49.896Z,2.37
2022-10-13T01:12:36.087Z,2.73
2022-10-13T01:17:30.310Z,2.53
2022-10-13T01:22:34.616Z,2.70
2022-10-13T01:27:27.777Z,2.53
2022-10-13T01:32:05.162Z,2.90
2022-10-13T01:37:03.041Z,2.60
2022-10-13T01:41:38.765Z,2.80
2022-10-13T01:46:15.840Z,3.27
2022-10-13T01:50:41.546Z,2.97
2022-10-13T01:55:13.104Z,2.77
2022-10-13T01:59:38.570Z,2.60
2022-10-13T02:04:39.021Z,2.70
2022-10-13T02:09:23.022Z,2.73
2022-10-13T02:13:57.814Z,2.53
2022-10-13T02:18:30.221Z,2.50
2022-10-13T02:23:01.733Z,2.87
2022-10-13T02:27:27.048Z,2.13
2022-10-13T02:31:54.743Z,2.80
2022-10-13T02:36:19.970Z,3.10
2022-10-13T02:40:45.213Z,3.40
2022-10-13T02:45:11.055Z,3.03
2022-10-13T02:49:36.298Z,3.27
2022-10-13T02:54:01.478Z,2.40
2022-10-13T02:58:26.982Z,2.90
2022-10-13T03:02:52.234Z,2.50
2022-10-13T03:07:17.395Z,2.70
2022-10-13T03:11:42.582Z,2.80
2022-10-13T03:16:08.218Z,3.00
2022-10-13T03:20:33.424Z,2.87
2022-10-13T03:24:59.055Z,2.27
2022-10-13T03:29:24.219Z,2.97
2022-10-13T03:33:49.497Z,3.50
2022-10-13T03:38:14.675Z,3.40
2022-10-13T03:42:40.236Z,4.07
2022-10-13T03:47:05.413Z,3.80
2022-10-13T03:51:30.710Z,3.40
2022-10-13T03:55:56.897Z,3.43
2022-10-13T04:00:22.060Z,3.00
2022-10-13T04:04:47.273Z,2.83
2022-10-13T04:09:13.035Z,2.90
2022-10-13T04:13:38.211Z,3.03
2022-10-13T04:18:04.743Z,3.10
2022-10-13T04:22:29.903Z,3.00
2022-10-13T04:26:55.154Z,3.37
2022-10-13T04:31:22.126Z,3.93
2022-10-13T04:35:47.332Z,5.10
2022-10-13T04:40:12.776Z,5.13
2022-10-13T04:44:38.043Z,4.20
2022-10-13T04:49:03.397Z,4.50
2022-10-13T04:53:29.863Z,4.00
2022-10-13T04:57:55.020Z,3.80
2022-10-13T05:02:20.606Z,3.97
2022-10-13T05:07:12.550Z,4.80
2022-10-13T05:11:32.248Z,4.70
2022-10-13T05:15:58.422Z,4.50
2022-10-13T05:20:23.668Z,3.83
2022-10-13T05:24:49.053Z,3.70
2022-10-13T05:29:14.294Z,4.10
2022-10-13T05:33:40.256Z,3.90
2022-10-13T05:38:05.615Z,3.87
2022-10-13T05:42:30.860Z,3.97
2022-10-13T05:46:57.003Z,3.77
2022-10-13T05:51:43.388Z,3.63
2022-10-13T05:56:21.834Z,4.00
2022-10-13T06:00:47.380Z,4.03
2022-10-13T06:05:17.891Z,4.57
2022-10-13T06:09:43.584Z,4.03
2022-10-13T06:14:08.758Z,4.07
2022-10-13T06:18:34.035Z,3.80
2022-10-13T06:22:59.291Z,5.00
2022-10-13T06:27:24.703Z,4.20
2022-10-13T06:31:49.910Z,5.27
2022-10-13T06:36:15.151Z,5.07
2022-10-13T06:40:40.308Z,5.67
2022-10-13T06:45:06.143Z,5.10
2022-10-13T06:49:31.649Z,5.43
2022-10-13T06:53:57.644Z,5.53
2022-10-13T06:58:22.894Z,5.57
2022-10-13T07:02:52.506Z,7.60
2022-10-13T07:07:17.786Z,7.63
2022-10-13T07:11:47.095Z,6.67
2022-10-13T07:16:12.307Z,7.27
2022-10-13T07:20:37.610Z,6.80
2022-10-13T07:25:02.852Z,6.37
2022-10-13T07:29:28.077Z,6.07
2022-10-13T07:33:54.139Z,6.27
2022-10-13T07:38:19.346Z,6.50
2022-10-13T07:42:44.535Z,6.93
2022-10-13T07:47:10.215Z,5.90
2022-10-13T07:51:35.586Z,7.90
2022-10-13T07:56:02.915Z,7.93
2022-10-13T08:00:28.348Z,7.80
2022-10-13T08:04:53.579Z,6.60
2022-10-13T08:09:18.770Z,7.63
2022-10-13T08:13:48.777Z,7.40
2022-10-13T08:18:15.336Z,6.67
2022-10-13T08:22:40.531Z,7.80
2022-10-13T08:27:05.795Z,7.60
2022-10-13T08:31:31.135Z,8.40
2022-10-13T08:35:56.952Z,6.93
2022-10-13T08:40:23.207Z,7.80
2022-10-13T08:49:48.149Z,7.93
2022-10-13T08:54:16.108Z,7.80
2022-10-13T08:58:43.179Z,7.13
2022-10-13T09:03:29.732Z,7.40
2022-10-13T09:07:58.111Z,7.77
2022-10-13T09:16:52.552Z,7.83
2022-10-13T09:21:26.133Z,7.63
2022-10-13T09:25:53.921Z,7.70
2022-10-13T09:53:40.672Z,8.10
2022-10-13T10:07:21.958Z,8.03
2022-10-13T10:35:13.446Z,9.50
2022-10-13T10:39:41.892Z,9.67
2022-10-13T10:44:16.482Z,10.00
2022-10-13T10:48:44.762Z,9.60
2022-10-13T10:53:23.449Z,10.63
2022-10-13T11:07:23.374Z,10.60
2022-10-13T11:11:48.589Z,10.40
2022-10-13T11:16:37.967Z,10.20
2022-10-13T11:21:03.149Z,10.43
2022-10-13T11:25:42.345Z,9.63
2022-10-13T11:31:05.633Z,9.83
2022-10-13T11:54:11.477Z,10.27
2022-10-13T11:58:42.880Z,10.40
2022-10-13T12:03:25.689Z,10.37
2022-10-13T12:53:30.055Z,7.13
2022-10-13T12:57:56.215Z,6.50
2022-10-13T13:02:30.009Z,7.23
2022-10-13T13:07:06.064Z,7.27
2022-10-13T13:11:37.489Z,7.20
2022-10-13T13:16:23.300Z,6.90
2022-10-13T13:20:48.507Z,8.00
2022-10-13T13:25:15.118Z,6.70
2022-10-13T13:29:40.395Z,7.53
2022-10-13T13:34:07.093Z,6.90
2022-10-13T13:38:32.719Z,7.00
2022-10-13T13:42:57.913Z,6.60
2022-10-13T13:47:28.415Z,7.23
2022-10-13T13:51:53.721Z,7.50
2022-10-13T13:56:20.470Z,6.30
2022-10-13T14:00:46.165Z,6.80
2022-10-13T14:05:12.440Z,7.70
2022-10-13T14:09:37.833Z,7.40
2022-10-13T14:14:03.095Z,7.00
2022-10-13T14:18:28.694Z,7.03
2022-10-13T14:22:54.101Z,7.63
2022-10-13T14:27:19.340Z,6.97
2022-10-13T14:31:44.662Z,7.50
2022-10-13T14:36:10.330Z,9.20
2022-10-13T14:40:35.535Z,8.27
2022-10-13T14:45:02.746Z,6.80
2022-10-13T14:49:28.023Z,7.13
2022-10-13T14:53:53.249Z,8.20
2022-10-13T14:58:18.810Z,7.80
2022-10-13T15:02:44.615Z,7.77
2022-10-13T15:07:09.862Z,8.30
2022-10-13T15:11:35.624Z,8.57
2022-10-13T15:16:04.388Z,7.97
2022-10-13T15:20:29.588Z,9.60
2022-10-13T15:24:54.780Z,8.00
2022-10-13T15:29:20.038Z,9.00
2022-10-13T15:33:51.984Z,8.80
2022-10-13T15:38:19.218Z,9.03
2022-10-13T15:42:44.430Z,9.50
2022-10-13T15:47:13.689Z,9.00
2022-10-13T15:51:41.689Z,8.33
2022-10-13T15:56:08.110Z,8.90
2022-10-13T16:00:33.624Z,8.23
2022-10-13T16:05:04.667Z,10.10
2022-10-13T16:09:30.800Z,9.80
2022-10-13T16:13:56.085Z,9.00
2022-10-13T16:18:21.266Z,7.80
2022-10-13T16:22:47.274Z,9.60
2022-10-13T16:27:12.588Z,8.00
2022-10-13T16:31:37.760Z,7.50
2022-10-13T16:36:18.426Z,7.97
2022-10-13T16:40:43.690Z,8.10
2022-10-13T16:45:09.479Z,9.63
2022-10-13T16:49:35.008Z,8.53
2022-10-13T16:54:04.241Z,12.20
2022-10-13T16:58:29.786Z,11.30
2022-10-13T17:02:55.290Z,10.20
2022-10-13T17:07:20.779Z,9.70
2022-10-13T17:11:46.559Z,10.63
2022-10-13T17:16:11.823Z,10.17
2022-10-13T17:20:37.067Z,11.47
2022-10-13T17:25:02.256Z,10.57
2022-10-13T17:29:27.496Z,11.40
2022-10-13T17:33:53.348Z,9.63
2022-10-13T17:38:18.719Z,9.17
2022-10-13T17:42:43.896Z,8.80
2022-10-13T17:47:09.122Z,8.30
2022-10-13T17:51:34.544Z,8.80
2022-10-13T17:56:06.739Z,8.57
2022-10-13T18:00:34.084Z,9.90
2022-10-13T18:05:09.226Z,9.73
2022-10-13T18:09:34.356Z,8.50
2022-10-13T18:14:00.028Z,9.33
2022-10-13T18:18:25.298Z,9.20
2022-10-13T18:22:50.564Z,9.47
2022-10-13T18:27:15.790Z,10.10
2022-10-13T18:31:42.058Z,8.70
2022-10-13T18:36:28.139Z,9.53
2022-10-13T18:40:58.794Z,12.60
2022-10-13T18:45:24.273Z,9.97
2022-10-13T18:49:49.509Z,10.10
2022-10-13T18:54:14.852Z,8.40
2022-10-13T18:58:40.256Z,9.83
2022-10-13T19:03:06.322Z,10.80
2022-10-13T19:07:35.699Z,11.40
2022-10-13T19:12:04.801Z,11.40
2022-10-13T19:16:31.939Z,10.63
2022-10-13T19:20:57.308Z,11.20
2022-10-13T19:25:22.530Z,11.70
2022-10-13T19:29:51.892Z,13.23
2022-10-13T19:34:17.357Z,13.10
2022-10-13T19:38:42.690Z,14.47
2022-10-13T19:43:08.199Z,13.43
2022-10-13T19:47:33.417Z,13.10
2022-10-13T19:51:58.569Z,14.70
2022-10-13T19:56:27.257Z,14.03
2022-10-13T20:00:52.581Z,15.70
2022-10-13T20:05:22.008Z,16.10
2022-10-13T20:09:49.930Z,16.00
2022-10-13T20:14:16.169Z,17.43
2022-10-13T20:18:42.287Z,17.20
2022-10-13T20:23:07.891Z,19.40
2022-10-13T20:27:33.453Z,18.80
2022-10-13T20:31:58.688Z,16.47
2022-10-13T20:36:26.135Z,16.70
2022-10-13T20:40:51.833Z,19.67
2022-10-13T20:45:17.408Z,20.10
2022-10-13T20:49:42.591Z,17.50
2022-10-13T20:54:08.229Z,17.40
2022-10-13T20:58:35.692Z,19.87
2022-10-13T21:03:02.270Z,19.90
2022-10-13T21:07:28.460Z,19.10
2022-10-13T21:11:53.654Z,21.03
2022-10-13T21:16:23.343Z,20.13
2022-10-13T21:20:49.987Z,20.07
2022-10-13T21:25:15.233Z,22.50
2022-10-13T21:29:40.406Z,22.23
2022-10-13T21:34:05.596Z,23.00
2022-10-13T21:38:30.808Z,24.77
2022-10-13T21:42:55.974Z,24.70
2022-10-13T21:47:21.561Z,23.50
2022-10-13T21:51:46.963Z,22.20
2022-10-13T21:56:12.243Z,22.03
2022-10-13T22:00:37.437Z,21.17
2022-10-13T22:05:02.799Z,20.67
2022-10-13T22:09:28.259Z,22.20
2022-10-13T22:13:55.062Z,24.60
2022-10-13T22:18:20.292Z,22.67
2022-10-13T22:22:45.468Z,22.43
2022-10-13T22:27:10.668Z,21.00
2022-10-13T22:31:36.302Z,21.40
2022-10-13T22:36:09.609Z,20.37
2022-10-13T22:40:34.787Z,22.27
2022-10-13T22:45:00.133Z,22.00
2022-10-13T22:49:25.401Z,20.70
2022-10-13T22:53:51.268Z,22.17
2022-10-13T22:58:16.493Z,22.70
2022-10-13T23:02:41.713Z,22.83
2022-10-13T23:07:06.892Z,24.17
2022-10-13T23:11:32.081Z,23.10
2022-10-13T23:16:07.216Z,22.17
2022-10-13T23:20:32.426Z,25.17
2022-10-13T23:24:57.653Z,25.77
2022-10-13T23:29:22.890Z,25.43
2022-10-13T23:33:48.537Z,27.17
2022-10-13T23:38:13.688Z,24.53
2022-10-13T23:42:39.036Z,26.37
2022-10-13T23:47:04.211Z,26.20
2022-10-13T23:51:29.430Z,24.87
2022-10-13T23:55:54.603Z,24.17
